sensor_id;sensor_type;location;lat;lon;timestamp;pressure;altitude;pressure_sealevel;temperature;humidity
22335;BME280;11335;43.848;25.958;2022-07-29T00:02:39;101120.19;;;25.64;100.00
22335;BME280;11335;43.848;25.958;2022-07-29T00:05:24;101122.25;;;25.48;100.00
22335;BME280;11335;43.848;25.958;2022-07-29T00:08:10;101110.69;;;25.48;100.00
22335;BME280;11335;43.848;25.958;2022-07-29T00:10:56;101124.00;;;25.37;100.00
22335;BME280;11335;43.848;25.958;2022-07-29T00:13:42;101129.25;;;25.51;100.00
22335;BME280;11335;43.848;25.958;2022-07-29T00:16:27;101140.03;;;25.13;100.00
22335;BME280;11335;43.848;25.958;2022-07-29T00:19:13;101133.56;;;25.16;100.00
22335;BME280;11335;43.848;25.958;2022-07-29T00:21:59;101133.03;;;24.98;100.00
22335;BME280;11335;43.848;25.958;2022-07-29T00:24:48;101134.72;;;25.24;100.00
22335;BME280;11335;43.848;25.958;2022-07-29T00:27:35;101133.25;;;25.08;100.00
22335;BME280;11335;43.848;25.958;2022-07-29T00:30:22;101135.94;;;25.08;100.00
22335;BME280;11335;43.848;25.958;2022-07-29T00:33:09;101135.81;;;24.97;100.00
22335;BME280;11335;43.848;25.958;2022-07-29T00:35:55;101128.63;;;25.10;100.00
22335;BME280;11335;43.848;25.958;2022-07-29T00:38:40;101131.00;;;24.89;100.00
22335;BME280;11335;43.848;25.958;2022-07-29T00:41:29;101131.13;;;24.88;100.00
22335;BME280;11335;43.848;25.958;2022-07-29T00:44:15;101134.44;;;24.79;100.00
22335;BME280;11335;43.848;25.958;2022-07-29T00:47:01;101134.88;;;24.85;100.00
22335;BME280;11335;43.848;25.958;2022-07-29T00:49:46;101129.09;;;24.79;100.00
22335;BME280;11335;43.848;25.958;2022-07-29T00:52:34;101128.88;;;25.07;100.00
22335;BME280;11335;43.848;25.958;2022-07-29T00:55:21;101129.91;;;25.17;100.00
22335;BME280;11335;43.848;25.958;2022-07-29T00:58:06;101121.13;;;24.90;100.00
22335;BME280;11335;43.848;25.958;2022-07-29T01:00:52;101124.47;;;24.68;100.00
22335;BME280;11335;43.848;25.958;2022-07-29T01:03:38;101119.22;;;24.67;100.00
22335;BME280;11335;43.848;25.958;2022-07-29T01:06:24;101118.41;;;24.52;100.00
22335;BME280;11335;43.848;25.958;2022-07-29T01:09:10;101117.66;;;24.50;100.00
22335;BME280;11335;43.848;25.958;2022-07-29T01:11:57;101124.50;;;24.54;100.00
22335;BME280;11335;43.848;25.958;2022-07-29T01:14:43;101116.53;;;24.67;100.00
22335;BME280;11335;43.848;25.958;2022-07-29T01:17:36;101126.63;;;24.88;100.00
22335;BME280;11335;43.848;25.958;2022-07-29T01:24:14;101117.16;;;24.70;100.00
22335;BME280;11335;43.848;25.958;2022-07-29T01:30:12;101110.16;;;24.55;100.00
22335;BME280;11335;43.848;25.958;2022-07-29T01:33:01;101103.06;;;24.29;100.00
22335;BME280;11335;43.848;25.958;2022-07-29T01:35:47;101104.47;;;24.35;100.00
22335;BME280;11335;43.848;25.958;2022-07-29T01:38:34;101108.00;;;24.48;100.00
22335;BME280;11335;43.848;25.958;2022-07-29T01:41:22;101107.97;;;24.35;100.00
22335;BME280;11335;43.848;25.958;2022-07-29T01:44:25;101100.84;;;24.09;100.00
22335;BME280;11335;43.848;25.958;2022-07-29T01:47:18;101108.75;;;24.37;100.00
22335;BME280;11335;43.848;25.958;2022-07-29T01:50:08;101106.38;;;24.33;100.00
22335;BME280;11335;43.848;25.958;2022-07-29T01:53:01;101103.44;;;24.23;100.00
22335;BME280;11335;43.848;25.958;2022-07-29T01:55:48;101107.53;;;24.16;100.00
22335;BME280;11335;43.848;25.958;2022-07-29T01:58:36;101111.03;;;24.17;100.00
22335;BME280;11335;43.848;25.958;2022-07-29T02:01:26;101107.47;;;24.43;100.00
22335;BME280;11335;43.848;25.958;2022-07-29T02:04:14;101098.81;;;24.13;100.00
22335;BME280;11335;43.848;25.958;2022-07-29T02:07:03;101103.00;;;24.17;100.00
22335;BME280;11335;43.848;25.958;2022-07-29T02:09:51;101109.34;;;24.16;100.00
22335;BME280;11335;43.848;25.958;2022-07-29T02:12:39;101105.72;;;24.29;100.00
22335;BME280;11335;43.848;25.958;2022-07-29T02:15:27;101101.25;;;24.30;100.00
22335;BME280;11335;43.848;25.958;2022-07-29T02:18:16;101095.41;;;23.84;100.00
22335;BME280;11335;43.848;25.958;2022-07-29T02:21:03;101093.56;;;23.85;100.00
22335;BME280;11335;43.848;25.958;2022-07-29T02:23:51;101089.38;;;23.81;100.00
22335;BME280;11335;43.848;25.958;2022-07-29T02:26:39;101094.47;;;23.71;100.00
22335;BME280;11335;43.848;25.958;2022-07-29T02:29:28;101093.56;;;23.85;100.00
22335;BME280;11335;43.848;25.958;2022-07-29T02:32:16;101095.44;;;23.97;100.00
22335;BME280;11335;43.848;25.958;2022-07-29T02:35:03;101096.13;;;24.00;100.00
22335;BME280;11335;43.848;25.958;2022-07-29T02:37:50;101097.59;;;23.92;100.00
22335;BME280;11335;43.848;25.958;2022-07-29T02:40:56;101102.31;;;24.01;100.00
22335;BME280;11335;43.848;25.958;2022-07-29T02:43:45;101100.66;;;24.12;100.00
22335;BME280;11335;43.848;25.958;2022-07-29T02:46:34;101103.09;;;24.03;100.00
22335;BME280;11335;43.848;25.958;2022-07-29T02:49:25;101105.63;;;23.92;100.00
22335;BME280;11335;43.848;25.958;2022-07-29T02:52:24;101105.03;;;23.87;100.00
22335;BME280;11335;43.848;25.958;2022-07-29T02:55:18;101112.63;;;24.07;100.00
22335;BME280;11335;43.848;25.958;2022-07-29T03:01:20;101115.41;;;23.65;100.00
22335;BME280;11335;43.848;25.958;2022-07-29T03:04:08;101116.47;;;23.62;100.00
22335;BME280;11335;43.848;25.958;2022-07-29T03:06:58;101115.28;;;23.39;100.00
22335;BME280;11335;43.848;25.958;2022-07-29T03:09:45;101127.41;;;23.59;100.00
22335;BME280;11335;43.848;25.958;2022-07-29T03:12:31;101124.66;;;23.73;100.00
22335;BME280;11335;43.848;25.958;2022-07-29T03:15:18;101131.72;;;23.33;100.00
22335;BME280;11335;43.848;25.958;2022-07-29T03:18:05;101134.03;;;23.25;100.00
22335;BME280;11335;43.848;25.958;2022-07-29T03:20:51;101130.34;;;23.55;100.00
22335;BME280;11335;43.848;25.958;2022-07-29T03:23:43;101140.69;;;23.47;100.00
22335;BME280;11335;43.848;25.958;2022-07-29T03:26:30;101136.31;;;23.31;100.00
22335;BME280;11335;43.848;25.958;2022-07-29T03:29:16;101137.81;;;23.35;100.00
22335;BME280;11335;43.848;25.958;2022-07-29T03:32:04;101131.03;;;23.30;100.00
22335;BME280;11335;43.848;25.958;2022-07-29T03:34:50;101131.22;;;23.55;100.00
22335;BME280;11335;43.848;25.958;2022-07-29T03:37:35;101143.44;;;23.45;100.00
22335;BME280;11335;43.848;25.958;2022-07-29T03:40:25;101141.25;;;23.52;100.00
22335;BME280;11335;43.848;25.958;2022-07-29T03:43:13;101142.16;;;23.65;100.00
22335;BME280;11335;43.848;25.958;2022-07-29T03:46:01;101136.69;;;23.80;100.00
22335;BME280;11335;43.848;25.958;2022-07-29T03:48:52;101145.25;;;23.59;100.00
22335;BME280;11335;43.848;25.958;2022-07-29T03:51:42;101139.66;;;23.76;100.00
22335;BME280;11335;43.848;25.958;2022-07-29T03:54:27;101134.44;;;24.01;100.00
22335;BME280;11335;43.848;25.958;2022-07-29T03:57:14;101140.31;;;23.79;100.00
22335;BME280;11335;43.848;25.958;2022-07-29T04:00:03;101153.19;;;24.01;100.00
22335;BME280;11335;43.848;25.958;2022-07-29T04:02:50;101154.56;;;23.94;100.00
22335;BME280;11335;43.848;25.958;2022-07-29T04:05:36;101156.69;;;23.61;100.00
22335;BME280;11335;43.848;25.958;2022-07-29T04:08:22;101149.75;;;23.85;100.00
22335;BME280;11335;43.848;25.958;2022-07-29T04:11:08;101155.31;;;23.96;100.00
22335;BME280;11335;43.848;25.958;2022-07-29T04:13:53;101158.34;;;24.04;100.00
22335;BME280;11335;43.848;25.958;2022-07-29T04:16:39;101152.06;;;24.17;100.00
22335;BME280;11335;43.848;25.958;2022-07-29T04:19:25;101155.13;;;23.85;100.00
22335;BME280;11335;43.848;25.958;2022-07-29T04:22:11;101155.53;;;23.65;100.00
22335;BME280;11335;43.848;25.958;2022-07-29T04:24:56;101167.25;;;24.04;100.00
22335;BME280;11335;43.848;25.958;2022-07-29T04:27:42;101167.25;;;24.04;100.00
22335;BME280;11335;43.848;25.958;2022-07-29T04:30:45;101160.56;;;23.97;100.00
22335;BME280;11335;43.848;25.958;2022-07-29T04:33:31;101164.94;;;24.12;100.00
22335;BME280;11335;43.848;25.958;2022-07-29T04:36:16;101174.84;;;24.10;100.00
22335;BME280;11335;43.848;25.958;2022-07-29T04:39:03;101174.25;;;24.19;100.00
22335;BME280;11335;43.848;25.958;2022-07-29T04:41:49;101170.44;;;24.36;100.00
22335;BME280;11335;43.848;25.958;2022-07-29T04:44:35;101170.16;;;24.40;100.00
22335;BME280;11335;43.848;25.958;2022-07-29T04:47:21;101173.44;;;24.70;100.00
22335;BME280;11335;43.848;25.958;2022-07-29T04:50:08;101169.50;;;25.01;100.00
22335;BME280;11335;43.848;25.958;2022-07-29T04:52:54;101172.81;;;24.79;100.00
22335;BME280;11335;43.848;25.958;2022-07-29T04:55:40;101179.50;;;24.99;100.00
22335;BME280;11335;43.848;25.958;2022-07-29T04:58:25;101178.75;;;24.84;100.00
22335;BME280;11335;43.848;25.958;2022-07-29T05:01:11;101182.38;;;24.96;100.00
22335;BME280;11335;43.848;25.958;2022-07-29T05:03:57;101189.66;;;24.94;100.00
22335;BME280;11335;43.848;25.958;2022-07-29T05:06:43;101181.31;;;24.98;100.00
22335;BME280;11335;43.848;25.958;2022-07-29T05:09:28;101185.16;;;24.94;100.00
22335;BME280;11335;43.848;25.958;2022-07-29T05:12:14;101188.06;;;25.16;100.00
22335;BME280;11335;43.848;25.958;2022-07-29T05:15:00;101182.47;;;25.19;100.00
22335;BME280;11335;43.848;25.958;2022-07-29T05:17:46;101184.84;;;25.36;100.00
22335;BME280;11335;43.848;25.958;2022-07-29T05:20:32;101192.31;;;25.69;100.00
22335;BME280;11335;43.848;25.958;2022-07-29T05:23:19;101190.31;;;25.47;100.00
22335;BME280;11335;43.848;25.958;2022-07-29T05:26:05;101188.66;;;25.70;100.00
22335;BME280;11335;43.848;25.958;2022-07-29T05:28:50;101200.81;;;26.11;100.00
22335;BME280;11335;43.848;25.958;2022-07-29T05:31:36;101195.09;;;25.80;100.00
22335;BME280;11335;43.848;25.958;2022-07-29T05:34:22;101195.13;;;26.16;100.00
22335;BME280;11335;43.848;25.958;2022-07-29T05:37:08;101198.19;;;26.22;100.00
22335;BME280;11335;43.848;25.958;2022-07-29T05:39:54;101201.28;;;25.93;100.00
22335;BME280;11335;43.848;25.958;2022-07-29T05:42:39;101198.59;;;26.05;100.00
22335;BME280;11335;43.848;25.958;2022-07-29T05:45:25;101190.97;;;26.23;100.00
22335;BME280;11335;43.848;25.958;2022-07-29T05:48:11;101193.22;;;26.29;100.00
22335;BME280;11335;43.848;25.958;2022-07-29T05:50:57;101193.50;;;26.37;100.00
22335;BME280;11335;43.848;25.958;2022-07-29T05:53:43;101185.59;;;26.46;100.00
22335;BME280;11335;43.848;25.958;2022-07-29T05:56:30;101195.09;;;26.63;100.00
22335;BME280;11335;43.848;25.958;2022-07-29T05:59:16;101195.47;;;26.69;100.00
22335;BME280;11335;43.848;25.958;2022-07-29T06:02:01;101190.38;;;26.77;100.00
22335;BME280;11335;43.848;25.958;2022-07-29T06:04:47;101203.00;;;26.99;100.00
22335;BME280;11335;43.848;25.958;2022-07-29T06:07:34;101200.50;;;27.19;100.00
22335;BME280;11335;43.848;25.958;2022-07-29T06:10:19;101199.44;;;27.22;100.00
22335;BME280;11335;43.848;25.958;2022-07-29T06:13:05;101197.53;;;27.00;100.00
22335;BME280;11335;43.848;25.958;2022-07-29T06:15:51;101196.66;;;27.00;100.00
22335;BME280;11335;43.848;25.958;2022-07-29T06:18:37;101196.50;;;27.25;100.00
22335;BME280;11335;43.848;25.958;2022-07-29T06:21:23;101189.75;;;27.41;100.00
22335;BME280;11335;43.848;25.958;2022-07-29T06:24:10;101195.91;;;27.43;100.00
22335;BME280;11335;43.848;25.958;2022-07-29T06:26:56;101193.81;;;27.58;100.00
22335;BME280;11335;43.848;25.958;2022-07-29T06:29:42;101190.25;;;27.58;100.00
22335;BME280;11335;43.848;25.958;2022-07-29T06:32:27;101198.53;;;27.99;100.00
22335;BME280;11335;43.848;25.958;2022-07-29T06:35:13;101189.66;;;28.19;100.00
22335;BME280;11335;43.848;25.958;2022-07-29T06:37:59;101197.38;;;28.23;100.00
22335;BME280;11335;43.848;25.958;2022-07-29T06:40:45;101194.78;;;27.90;100.00
22335;BME280;11335;43.848;25.958;2022-07-29T06:43:55;101198.25;;;28.24;100.00
22335;BME280;11335;43.848;25.958;2022-07-29T06:46:41;101201.00;;;28.33;100.00
22335;BME280;11335;43.848;25.958;2022-07-29T06:49:27;101208.97;;;28.46;100.00
22335;BME280;11335;43.848;25.958;2022-07-29T06:52:13;101191.94;;;28.45;99.01
22335;BME280;11335;43.848;25.958;2022-07-29T06:54:59;101199.94;;;28.88;95.90
22335;BME280;11335;43.848;25.958;2022-07-29T06:57:45;101199.97;;;29.08;93.56
22335;BME280;11335;43.848;25.958;2022-07-29T07:00:31;101204.75;;;29.25;91.68
22335;BME280;11335;43.848;25.958;2022-07-29T07:03:18;101198.41;;;28.95;91.36
22335;BME280;11335;43.848;25.958;2022-07-29T07:06:03;101202.28;;;29.43;89.47
22335;BME280;11335;43.848;25.958;2022-07-29T07:08:49;101207.25;;;29.17;86.19
22335;BME280;11335;43.848;25.958;2022-07-29T07:11:35;101206.28;;;29.18;86.20
22335;BME280;11335;43.848;25.958;2022-07-29T07:14:21;101195.69;;;29.36;85.82
22335;BME280;11335;43.848;25.958;2022-07-29T07:17:06;101196.50;;;29.87;84.67
22335;BME280;11335;43.848;25.958;2022-07-29T07:19:53;101200.13;;;29.67;82.45
22335;BME280;11335;43.848;25.958;2022-07-29T07:22:38;101195.97;;;29.93;80.61
22335;BME280;11335;43.848;25.958;2022-07-29T07:25:24;101192.34;;;30.41;79.62
22335;BME280;11335;43.848;25.958;2022-07-29T07:28:10;101204.31;;;30.29;76.21
22335;BME280;11335;43.848;25.958;2022-07-29T07:30:56;101192.63;;;30.29;72.71
22335;BME280;11335;43.848;25.958;2022-07-29T07:33:42;101194.78;;;30.63;71.18
22335;BME280;11335;43.848;25.958;2022-07-29T07:36:28;101181.25;;;30.73;71.67
22335;BME280;11335;43.848;25.958;2022-07-29T07:39:14;101186.22;;;30.68;67.64
22335;BME280;11335;43.848;25.958;2022-07-29T07:41:59;101192.31;;;31.08;66.84
22335;BME280;11335;43.848;25.958;2022-07-29T07:44:45;101196.47;;;31.02;61.61
22335;BME280;11335;43.848;25.958;2022-07-29T07:47:32;101189.84;;;31.33;60.83
22335;BME280;11335;43.848;25.958;2022-07-29T07:50:18;101187.78;;;31.08;60.01
22335;BME280;11335;43.848;25.958;2022-07-29T07:53:03;101182.88;;;31.21;58.69
22335;BME280;11335;43.848;25.958;2022-07-29T07:55:49;101182.47;;;31.63;58.58
22335;BME280;11335;43.848;25.958;2022-07-29T07:58:35;101187.69;;;31.74;57.02
22335;BME280;11335;43.848;25.958;2022-07-29T08:01:21;101187.25;;;31.78;54.31
22335;BME280;11335;43.848;25.958;2022-07-29T08:04:09;101187.91;;;31.90;55.26
22335;BME280;11335;43.848;25.958;2022-07-29T08:06:56;101191.94;;;31.76;52.61
22335;BME280;11335;43.848;25.958;2022-07-29T08:09:45;101181.38;;;31.83;52.06
22335;BME280;11335;43.848;25.958;2022-07-29T08:12:33;101184.59;;;31.96;51.29
22335;BME280;11335;43.848;25.958;2022-07-29T08:15:19;101175.28;;;32.60;51.89
22335;BME280;11335;43.848;25.958;2022-07-29T08:18:05;101180.84;;;32.76;51.32
22335;BME280;11335;43.848;25.958;2022-07-29T08:20:51;101178.16;;;32.59;48.85
22335;BME280;11335;43.848;25.958;2022-07-29T08:23:37;101188.03;;;33.03;47.79
22335;BME280;11335;43.848;25.958;2022-07-29T08:26:31;101187.16;;;33.28;48.30
22335;BME280;11335;43.848;25.958;2022-07-29T08:29:17;101184.25;;;33.80;46.54
22335;BME280;11335;43.848;25.958;2022-07-29T08:32:05;101181.38;;;33.90;48.01
22335;BME280;11335;43.848;25.958;2022-07-29T08:34:54;101180.13;;;34.26;44.86
22335;BME280;11335;43.848;25.958;2022-07-29T08:37:40;101170.81;;;34.44;45.26
22335;BME280;11335;43.848;25.958;2022-07-29T08:40:27;101178.22;;;34.02;46.10
22335;BME280;11335;43.848;25.958;2022-07-29T08:43:13;101174.94;;;33.91;46.81
22335;BME280;11335;43.848;25.958;2022-07-29T08:46:00;101168.63;;;34.40;44.69
22335;BME280;11335;43.848;25.958;2022-07-29T08:48:46;101169.22;;;34.26;45.15
22335;BME280;11335;43.848;25.958;2022-07-29T08:51:33;101165.38;;;34.60;44.51
22335;BME280;11335;43.848;25.958;2022-07-29T08:54:21;101160.81;;;34.85;44.56
22335;BME280;11335;43.848;25.958;2022-07-29T08:57:07;101152.44;;;34.78;46.16
22335;BME280;11335;43.848;25.958;2022-07-29T08:59:54;101147.53;;;34.82;44.07
22335;BME280;11335;43.848;25.958;2022-07-29T09:02:41;101150.88;;;35.16;44.42
22335;BME280;11335;43.848;25.958;2022-07-29T09:05:31;101148.88;;;34.94;43.91
22335;BME280;11335;43.848;25.958;2022-07-29T09:08:17;101139.50;;;34.56;43.27
22335;BME280;11335;43.848;25.958;2022-07-29T09:11:03;101144.97;;;34.48;43.63
22335;BME280;11335;43.848;25.958;2022-07-29T09:13:49;101140.88;;;34.36;43.40
22335;BME280;11335;43.848;25.958;2022-07-29T09:16:45;101145.13;;;34.87;44.41
22335;BME280;11335;43.848;25.958;2022-07-29T09:19:36;101140.44;;;35.28;42.66
22335;BME280;11335;43.848;25.958;2022-07-29T09:22:31;101142.75;;;35.00;44.61
22335;BME280;11335;43.848;25.958;2022-07-29T09:25:32;101142.38;;;34.71;44.34
22335;BME280;11335;43.848;25.958;2022-07-29T09:28:18;101144.44;;;34.77;42.87
22335;BME280;11335;43.848;25.958;2022-07-29T09:31:06;101142.69;;;35.32;40.73
22335;BME280;11335;43.848;25.958;2022-07-29T09:33:54;101144.28;;;34.38;42.56
22335;BME280;11335;43.848;25.958;2022-07-29T09:36:48;101146.16;;;34.94;41.94
22335;BME280;11335;43.848;25.958;2022-07-29T09:39:39;101141.69;;;35.09;40.97
22335;BME280;11335;43.848;25.958;2022-07-29T09:42:31;101144.28;;;34.78;41.50
22335;BME280;11335;43.848;25.958;2022-07-29T09:45:37;101136.94;;;34.63;43.47
22335;BME280;11335;43.848;25.958;2022-07-29T09:48:24;101131.72;;;34.85;42.00
22335;BME280;11335;43.848;25.958;2022-07-29T09:51:20;101126.53;;;35.14;41.36
22335;BME280;11335;43.848;25.958;2022-07-29T09:54:25;101125.72;;;34.98;41.53
22335;BME280;11335;43.848;25.958;2022-07-29T09:57:26;101121.59;;;35.10;42.09
22335;BME280;11335;43.848;25.958;2022-07-29T10:00:18;101125.69;;;35.14;42.38
22335;BME280;11335;43.848;25.958;2022-07-29T10:03:04;101121.66;;;34.54;41.96
22335;BME280;11335;43.848;25.958;2022-07-29T10:06:11;101115.00;;;34.96;42.78
22335;BME280;11335;43.848;25.958;2022-07-29T10:09:09;101113.63;;;34.76;40.69
22335;BME280;11335;43.848;25.958;2022-07-29T10:12:11;101110.25;;;34.90;40.86
22335;BME280;11335;43.848;25.958;2022-07-29T10:15:01;101109.06;;;34.61;42.40
22335;BME280;11335;43.848;25.958;2022-07-29T10:17:49;101107.38;;;34.52;42.02
22335;BME280;11335;43.848;25.958;2022-07-29T10:20:36;101097.81;;;34.16;43.54
22335;BME280;11335;43.848;25.958;2022-07-29T10:23:23;101102.91;;;34.75;44.96
22335;BME280;11335;43.848;25.958;2022-07-29T10:26:10;101095.03;;;35.28;42.92
22335;BME280;11335;43.848;25.958;2022-07-29T10:28:55;101094.19;;;35.58;40.68
22335;BME280;11335;43.848;25.958;2022-07-29T10:31:52;101093.16;;;35.12;40.71
22335;BME280;11335;43.848;25.958;2022-07-29T10:44:17;101082.72;;;35.32;39.79
22335;BME280;11335;43.848;25.958;2022-07-29T10:47:03;101080.59;;;35.03;40.03
22335;BME280;11335;43.848;25.958;2022-07-29T10:49:57;101072.91;;;35.07;38.61
22335;BME280;11335;43.848;25.958;2022-07-29T10:55:39;101077.75;;;34.81;39.07
22335;BME280;11335;43.848;25.958;2022-07-29T10:58:33;101073.47;;;34.78;38.85
22335;BME280;11335;43.848;25.958;2022-07-29T11:01:30;101073.66;;;34.85;39.61
22335;BME280;11335;43.848;25.958;2022-07-29T11:07:32;101060.50;;;35.43;39.85
22335;BME280;11335;43.848;25.958;2022-07-29T11:10:20;101052.72;;;35.40;40.41
22335;BME280;11335;43.848;25.958;2022-07-29T11:13:06;101047.22;;;35.01;41.35
22335;BME280;11335;43.848;25.958;2022-07-29T11:15:56;101043.38;;;35.65;41.86
22335;BME280;11335;43.848;25.958;2022-07-29T11:21:57;101032.44;;;35.43;43.25
22335;BME280;11335;43.848;25.958;2022-07-29T11:24:43;101034.06;;;35.82;41.16
22335;BME280;11335;43.848;25.958;2022-07-29T11:27:31;101026.34;;;35.24;41.55
22335;BME280;11335;43.848;25.958;2022-07-29T11:30:48;101036.91;;;35.89;40.50
22335;BME280;11335;43.848;25.958;2022-07-29T11:33:35;101036.78;;;36.27;40.17
22335;BME280;11335;43.848;25.958;2022-07-29T11:36:21;101028.06;;;36.09;39.30
22335;BME280;11335;43.848;25.958;2022-07-29T11:39:26;101028.19;;;36.16;40.47
22335;BME280;11335;43.848;25.958;2022-07-29T11:45:15;101014.38;;;35.95;40.26
22335;BME280;11335;43.848;25.958;2022-07-29T11:48:03;101008.97;;;35.87;40.26
22335;BME280;11335;43.848;25.958;2022-07-29T11:50:51;101008.31;;;36.59;41.39
22335;BME280;11335;43.848;25.958;2022-07-29T11:53:39;101013.97;;;36.43;41.78
22335;BME280;11335;43.848;25.958;2022-07-29T11:56:25;101003.44;;;36.17;40.64
22335;BME280;11335;43.848;25.958;2022-07-29T11:59:17;100999.53;;;35.44;42.03
22335;BME280;11335;43.848;25.958;2022-07-29T12:02:03;101011.13;;;36.14;41.03
22335;BME280;11335;43.848;25.958;2022-07-29T12:04:53;100999.41;;;35.91;40.86
22335;BME280;11335;43.848;25.958;2022-07-29T12:07:39;101003.56;;;36.24;41.27
22335;BME280;11335;43.848;25.958;2022-07-29T12:10:30;101001.16;;;36.43;39.95
22335;BME280;11335;43.848;25.958;2022-07-29T12:13:20;100997.28;;;36.67;40.15
22335;BME280;11335;43.848;25.958;2022-07-29T12:16:06;100992.69;;;36.53;40.01
22335;BME280;11335;43.848;25.958;2022-07-29T12:18:56;100985.91;;;36.34;40.36
22335;BME280;11335;43.848;25.958;2022-07-29T12:21:53;100986.66;;;36.43;40.66
22335;BME280;11335;43.848;25.958;2022-07-29T12:24:43;100984.88;;;36.50;41.33
22335;BME280;11335;43.848;25.958;2022-07-29T12:27:30;100981.47;;;36.33;39.86
22335;BME280;11335;43.848;25.958;2022-07-29T12:30:16;100980.19;;;36.21;39.68
22335;BME280;11335;43.848;25.958;2022-07-29T12:33:19;100973.84;;;36.29;40.40
22335;BME280;11335;43.848;25.958;2022-07-29T12:36:05;100967.16;;;36.60;41.35
22335;BME280;11335;43.848;25.958;2022-07-29T12:38:51;100969.25;;;36.58;41.13
22335;BME280;11335;43.848;25.958;2022-07-29T12:41:38;100956.25;;;36.75;40.77
22335;BME280;11335;43.848;25.958;2022-07-29T12:44:24;100958.50;;;35.91;40.18
22335;BME280;11335;43.848;25.958;2022-07-29T12:47:11;100944.38;;;36.02;40.69
22335;BME280;11335;43.848;25.958;2022-07-29T12:50:13;100949.09;;;35.93;40.36
22335;BME280;11335;43.848;25.958;2022-07-29T12:53:14;100940.91;;;36.45;40.20
22335;BME280;11335;43.848;25.958;2022-07-29T12:56:00;100939.69;;;36.10;41.04
22335;BME280;11335;43.848;25.958;2022-07-29T12:58:49;100944.00;;;36.27;40.62
22335;BME280;11335;43.848;25.958;2022-07-29T13:01:36;100933.38;;;36.10;39.74
22335;BME280;11335;43.848;25.958;2022-07-29T13:04:32;100935.28;;;36.09;39.33
22335;BME280;11335;43.848;25.958;2022-07-29T13:07:24;100932.06;;;36.43;39.49
22335;BME280;11335;43.848;25.958;2022-07-29T13:10:16;100929.47;;;35.67;40.87
22335;BME280;11335;43.848;25.958;2022-07-29T13:13:08;100922.41;;;35.58;41.73
22335;BME280;11335;43.848;25.958;2022-07-29T13:16:15;100925.47;;;36.23;40.42
22335;BME280;11335;43.848;25.958;2022-07-29T13:19:09;100918.78;;;36.25;40.34
22335;BME280;11335;43.848;25.958;2022-07-29T13:21:55;100914.69;;;36.07;40.18
22335;BME280;11335;43.848;25.958;2022-07-29T13:24:58;100915.22;;;36.02;41.46
22335;BME280;11335;43.848;25.958;2022-07-29T13:27:44;100915.91;;;36.19;41.08
22335;BME280;11335;43.848;25.958;2022-07-29T13:30:31;100915.50;;;35.70;42.30
22335;BME280;11335;43.848;25.958;2022-07-29T13:33:16;100911.16;;;35.84;41.25
22335;BME280;11335;43.848;25.958;2022-07-29T13:36:02;100905.72;;;35.98;40.54
22335;BME280;11335;43.848;25.958;2022-07-29T13:38:48;100905.63;;;36.06;41.25
22335;BME280;11335;43.848;25.958;2022-07-29T13:41:34;100896.03;;;35.96;40.98
22335;BME280;11335;43.848;25.958;2022-07-29T13:44:20;100906.38;;;36.00;40.85
22335;BME280;11335;43.848;25.958;2022-07-29T13:47:06;100895.34;;;36.31;40.41
22335;BME280;11335;43.848;25.958;2022-07-29T13:49:53;100891.13;;;36.06;39.99
22335;BME280;11335;43.848;25.958;2022-07-29T13:52:39;100889.31;;;35.84;39.79
22335;BME280;11335;43.848;25.958;2022-07-29T13:55:24;100882.38;;;35.81;40.09
22335;BME280;11335;43.848;25.958;2022-07-29T13:58:10;100878.63;;;35.97;40.34
22335;BME280;11335;43.848;25.958;2022-07-29T14:00:56;100887.81;;;35.81;40.37
22335;BME280;11335;43.848;25.958;2022-07-29T14:03:42;100881.88;;;35.78;40.96
22335;BME280;11335;43.848;25.958;2022-07-29T14:06:28;100875.50;;;35.85;40.79
22335;BME280;11335;43.848;25.958;2022-07-29T14:09:14;100881.50;;;35.58;40.77
22335;BME280;11335;43.848;25.958;2022-07-29T14:12:03;100885.66;;;35.91;40.26
22335;BME280;11335;43.848;25.958;2022-07-29T14:14:49;100879.50;;;35.75;39.64
22335;BME280;11335;43.848;25.958;2022-07-29T14:17:34;100885.38;;;35.64;40.04
22335;BME280;11335;43.848;25.958;2022-07-29T14:20:20;100884.81;;;35.76;40.39
22335;BME280;11335;43.848;25.958;2022-07-29T14:23:06;100876.94;;;35.36;40.37
22335;BME280;11335;43.848;25.958;2022-07-29T14:25:52;100872.69;;;35.56;40.44
22335;BME280;11335;43.848;25.958;2022-07-29T14:28:38;100876.22;;;35.79;40.59
22335;BME280;11335;43.848;25.958;2022-07-29T14:31:23;100889.16;;;35.63;40.96
22335;BME280;11335;43.848;25.958;2022-07-29T14:34:10;100878.81;;;35.73;41.17
22335;BME280;11335;43.848;25.958;2022-07-29T14:36:56;100878.06;;;36.01;41.37
22335;BME280;11335;43.848;25.958;2022-07-29T14:39:42;100881.31;;;35.82;40.24
22335;BME280;11335;43.848;25.958;2022-07-29T14:42:27;100888.31;;;36.14;40.37
22335;BME280;11335;43.848;25.958;2022-07-29T14:45:13;100881.72;;;35.94;41.05
22335;BME280;11335;43.848;25.958;2022-07-29T14:47:59;100879.25;;;35.62;40.65
22335;BME280;11335;43.848;25.958;2022-07-29T14:50:45;100867.66;;;35.45;40.77
22335;BME280;11335;43.848;25.958;2022-07-29T14:53:31;100869.78;;;35.35;41.67
22335;BME280;11335;43.848;25.958;2022-07-29T14:56:17;100863.72;;;35.48;41.87